createdAt,value
2018-09-29T00:00:54.770Z,1021.83
2018-09-29T00:02:04.184Z,1021.83
2018-09-29T00:03:13.907Z,1021.79
2018-09-29T00:04:23.736Z,1021.74
2018-09-29T00:05:33.448Z,1021.76
2018-09-29T00:06:42.633Z,1021.76
2018-09-29T00:07:52.574Z,1021.78
2018-09-29T00:09:02.253Z,1021.81
2018-09-29T00:10:12.239Z,1021.76
2018-09-29T00:11:22.625Z,1021.82
2018-09-29T00:12:32.307Z,1021.86
2018-09-29T00:13:42.230Z,1021.89
2018-09-29T00:14:51.913Z,1021.91
2018-09-29T00:16:01.920Z,1021.99
2018-09-29T00:17:11.868Z,1022
2018-09-29T00:18:21.542Z,1021.98
2018-09-29T00:19:30.981Z,1021.96
2018-09-29T00:20:40.669Z,1021.92
2018-09-29T00:21:50.355Z,1021.92
2018-09-29T00:23:00.032Z,1021.92
2018-09-29T00:24:09.967Z,1021.92
2018-09-29T00:25:19.902Z,1021.93
2018-09-29T00:26:29.860Z,1021.91
2018-09-29T00:27:39.800Z,1021.92
2018-09-29T00:28:49.730Z,1021.93
2018-09-29T00:29:59.444Z,1021.96
2018-09-29T00:31:09.384Z,1021.98
2018-09-29T00:32:19.075Z,1022
2018-09-29T00:33:28.812Z,1022.04
2018-09-29T00:34:38.754Z,1022.07
2018-09-29T00:35:48.696Z,1022.06
2018-09-29T00:36:58.633Z,1022.08
2018-09-29T00:38:08.569Z,1022.04
2018-09-29T00:39:18.516Z,1022.04
2018-09-29T00:40:28.422Z,1022.07
2018-09-29T00:41:38.113Z,1022.04
2018-09-29T00:42:48.059Z,1022.06
2018-09-29T00:43:58.010Z,1022.08
2018-09-29T00:45:07.955Z,1022.1
2018-09-29T00:46:17.886Z,1022.07
2018-09-29T00:47:27.836Z,1022.11
2018-09-29T00:48:37.769Z,1022.1
2018-09-29T00:49:47.199Z,1022.07
2018-09-29T00:50:56.625Z,1022.06
2018-09-29T00:52:06.304Z,1022.04
2018-09-29T00:53:15.987Z,1022.09
2018-09-29T00:54:25.672Z,1022.13
2018-09-29T00:55:35.361Z,1022.16
2018-09-29T00:56:45.301Z,1022.11
2018-09-29T00:57:54.982Z,1022.17
2018-09-29T00:59:04.907Z,1022.16
2018-09-29T01:00:14.855Z,1022.21
2018-09-29T01:01:24.793Z,1022.26
2018-09-29T01:02:34.773Z,1022.21
2018-09-29T01:03:44.748Z,1022.22
2018-09-29T01:04:54.694Z,1022.21
2018-09-29T01:06:04.645Z,1022.27
2018-09-29T01:07:14.075Z,1022.26
2018-09-29T01:08:24.025Z,1022.22
2018-09-29T01:09:33.962Z,1022.19
2018-09-29T01:10:43.900Z,1022.18
2018-09-29T01:11:53.833Z,1022.25
2018-09-29T01:13:03.772Z,1022.24
2018-09-29T01:14:13.466Z,1022.28
2018-09-29T01:15:23.404Z,1022.24
2018-09-29T01:16:33.342Z,1022.25
2018-09-29T01:17:42.758Z,1022.22
2018-09-29T01:18:52.180Z,1022.21
2018-09-29T01:20:02.149Z,1022.23
2018-09-29T01:21:11.833Z,1022.2
2018-09-29T01:22:21.760Z,1022.13
2018-09-29T01:23:31.448Z,1022.18
2018-09-29T01:24:41.139Z,1022.18
2018-09-29T01:25:51.091Z,1022.16
2018-09-29T01:27:01.050Z,1022.15
2018-09-29T01:28:11.056Z,1022.18
2018-09-29T01:29:21.000Z,1022.16
2018-09-29T01:30:30.942Z,1022.18
2018-09-29T01:31:40.627Z,1022.19
2018-09-29T01:32:50.577Z,1022.14
2018-09-29T01:34:00.263Z,1022.15
2018-09-29T01:35:10.204Z,1022.13
2018-09-29T01:36:20.157Z,1022.12
2018-09-29T01:37:30.104Z,1022.16
2018-09-29T01:38:40.071Z,1022.13
2018-09-29T01:39:50.014Z,1022.08
2018-09-29T01:40:59.956Z,1022.11
2018-09-29T01:42:09.906Z,1022.09
2018-09-29T01:43:19.847Z,1022.13
2018-09-29T01:44:29.802Z,1022.09
2018-09-29T01:45:39.742Z,1022.12
2018-09-29T01:46:49.677Z,1022.22
2018-09-29T01:47:59.651Z,1022.16
2018-09-29T01:49:09.661Z,1022.28
2018-09-29T01:50:19.613Z,1022.26
2018-09-29T01:51:29.588Z,1022.32
2018-09-29T01:52:39.277Z,1022.34
2018-09-29T01:53:49.222Z,1022.34
2018-09-29T01:54:59.171Z,1022.3
2018-09-29T01:56:08.855Z,1022.32
2018-09-29T01:57:18.793Z,1022.39
2018-09-29T01:58:28.747Z,1022.37
2018-09-29T01:59:38.705Z,1022.41
2018-09-29T02:00:48.656Z,1022.4
2018-09-29T02:01:58.591Z,1022.37
2018-09-29T02:03:08.521Z,1022.39
2018-09-29T02:04:18.218Z,1022.41
2018-09-29T02:05:28.172Z,1022.43
2018-09-29T02:06:37.853Z,1022.46
2018-09-29T02:07:47.786Z,1022.44
2018-09-29T02:08:58.127Z,1022.41
2018-09-29T02:10:07.806Z,1022.4
2018-09-29T02:11:17.740Z,1022.41
2018-09-29T02:12:27.707Z,1022.37
2018-09-29T02:13:37.647Z,1022.33
2018-09-29T02:14:47.332Z,1022.36
2018-09-29T02:15:57.277Z,1022.36
2018-09-29T02:17:06.957Z,1022.33
2018-09-29T02:18:16.663Z,1022.35
2018-09-29T02:19:26.608Z,1022.36
2018-09-29T02:20:36.562Z,1022.33
2018-09-29T02:21:46.519Z,1022.35
2018-09-29T02:22:56.218Z,1022.4
2018-09-29T02:24:05.887Z,1022.37
2018-09-29T02:25:15.830Z,1022.35
2018-09-29T02:26:25.784Z,1022.38
2018-09-29T02:27:35.728Z,1022.37
2018-09-29T02:28:45.690Z,1022.35
2018-09-29T02:29:56.016Z,1022.38
2018-09-29T02:31:05.707Z,1022.42
2018-09-29T02:32:15.660Z,1022.43
2018-09-29T02:33:25.354Z,1022.45
2018-09-29T02:34:35.301Z,1022.52
2018-09-29T02:35:44.503Z,1022.47
2018-09-29T02:36:54.463Z,1022.51
2018-09-29T02:38:04.407Z,1022.47
2018-09-29T02:39:14.109Z,1022.47
2018-09-29T02:40:23.799Z,1022.53
2018-09-29T02:41:33.231Z,1022.57
2018-09-29T02:42:43.181Z,1022.53
2018-09-29T02:43:53.151Z,1022.53
2018-09-29T02:45:02.834Z,1022.57
2018-09-29T02:46:12.779Z,1022.54
2018-09-29T02:47:22.477Z,1022.53
2018-09-29T02:48:32.173Z,1022.53
2018-09-29T02:49:41.862Z,1022.55
2018-09-29T02:50:51.555Z,1022.51
2018-09-29T02:52:01.267Z,1022.51
2018-09-29T02:53:11.228Z,1022.52
2018-09-29T02:54:21.182Z,1022.54
2018-09-29T02:55:30.880Z,1022.53
2018-09-29T02:56:40.826Z,1022.54
2018-09-29T02:57:50.771Z,1022.54
2018-09-29T02:59:00.460Z,1022.58
2018-09-29T03:00:10.427Z,1022.56
2018-09-29T03:01:20.390Z,1022.57
2018-09-29T03:02:30.348Z,1022.62
2018-09-29T03:03:40.286Z,1022.63
2018-09-29T03:04:49.960Z,1022.68
2018-09-29T03:05:59.921Z,1022.64
2018-09-29T03:07:09.950Z,1022.68
2018-09-29T03:08:20.030Z,1022.69
2018-09-29T03:09:29.992Z,1022.72
2018-09-29T03:10:39.680Z,1022.69
2018-09-29T03:11:49.639Z,1022.68
2018-09-29T03:12:59.597Z,1022.66
2018-09-29T03:14:09.031Z,1022.69
2018-09-29T03:15:18.974Z,1022.69
2018-09-29T03:16:28.680Z,1022.66
2018-09-29T03:17:38.636Z,1022.68
2018-09-29T03:18:48.317Z,1022.69
2018-09-29T03:19:58.258Z,1022.69
2018-09-29T03:21:08.193Z,1022.7
2018-09-29T03:22:17.615Z,1022.69
2018-09-29T03:23:27.304Z,1022.69
2018-09-29T03:24:37.252Z,1022.7
2018-09-29T03:25:47.206Z,1022.7
2018-09-29T03:26:57.152Z,1022.73
2018-09-29T03:28:07.090Z,1022.75
2018-09-29T03:29:16.777Z,1022.76
2018-09-29T03:30:26.739Z,1022.74
2018-09-29T03:31:36.483Z,1022.8
2018-09-29T03:32:47.298Z,1022.73
2018-09-29T03:33:57.010Z,1022.8
2018-09-29T03:35:07.184Z,1022.73
2018-09-29T03:36:17.133Z,1022.79
2018-09-29T03:37:27.072Z,1022.79
2018-09-29T03:38:37.018Z,1022.8
2018-09-29T03:39:47.211Z,1022.78
2018-09-29T03:40:57.155Z,1022.83
2018-09-29T03:42:06.586Z,1022.88
2018-09-29T03:43:16.531Z,1022.87
2018-09-29T03:44:26.473Z,1022.89
2018-09-29T03:45:36.419Z,1022.9
2018-09-29T03:46:46.371Z,1022.94
2018-09-29T03:47:56.321Z,1022.87
2018-09-29T03:49:06.015Z,1022.89
2018-09-29T03:50:15.721Z,1022.89
2018-09-29T03:51:25.148Z,1022.9
2018-09-29T03:52:34.848Z,1022.85
2018-09-29T03:53:44.882Z,1022.88
2018-09-29T03:54:54.595Z,1022.88
2018-09-29T03:56:04.548Z,1022.86
2018-09-29T03:57:14.256Z,1022.88
2018-09-29T03:58:24.207Z,1022.83
2018-09-29T03:59:33.901Z,1022.83
2018-09-29T04:00:43.662Z,1022.85
2018-09-29T04:01:53.596Z,1022.83
2018-09-29T04:03:03.551Z,1022.83
2018-09-29T04:04:13.517Z,1022.85
2018-09-29T04:05:23.461Z,1022.85
2018-09-29T04:06:33.419Z,1022.85
2018-09-29T04:07:43.094Z,1022.89
2018-09-29T04:08:52.818Z,1022.93
2018-09-29T04:10:02.760Z,1022.88
2018-09-29T04:11:12.713Z,1022.96
2018-09-29T04:12:22.659Z,1022.96
2018-09-29T04:13:32.604Z,1023
2018-09-29T04:14:42.411Z,1023.04
2018-09-29T04:15:52.365Z,1022.99
2018-09-29T04:17:02.045Z,1023.07
2018-09-29T04:18:11.732Z,1023.07
2018-09-29T04:19:21.675Z,1023.13
2018-09-29T04:20:31.640Z,1023.15
2018-09-29T04:21:41.584Z,1023.15
2018-09-29T04:22:51.527Z,1023.13
2018-09-29T04:24:01.272Z,1023.15
2018-09-29T04:25:11.222Z,1023.11
2018-09-29T04:26:21.163Z,1023.22
2018-09-29T04:27:31.161Z,1023.19
2018-09-29T04:28:41.113Z,1023.19
2018-09-29T04:29:51.101Z,1023.18
2018-09-29T04:31:01.030Z,1023.17
2018-09-29T04:32:10.989Z,1023.18
2018-09-29T04:33:20.934Z,1023.22
2018-09-29T04:34:30.626Z,1023.18
2018-09-29T04:35:40.320Z,1023.25
2018-09-29T04:36:50.013Z,1023.23
2018-09-29T04:37:59.957Z,1023.24
2018-09-29T04:39:09.385Z,1023.22
2018-09-29T04:40:19.341Z,1023.26
2018-09-29T04:41:29.103Z,1023.3
2018-09-29T04:42:38.782Z,1023.27
2018-09-29T04:43:48.491Z,1023.29
2018-09-29T04:44:58.433Z,1023.34
2018-09-29T04:46:08.366Z,1023.28
2018-09-29T04:47:18.307Z,1023.27
2018-09-29T04:48:28.247Z,1023.25
2018-09-29T04:49:38.185Z,1023.32
2018-09-29T04:50:47.877Z,1023.25
2018-09-29T04:51:57.878Z,1023.22
2018-09-29T04:53:07.821Z,1023.22
2018-09-29T04:54:17.763Z,1023.24
2018-09-29T04:55:27.454Z,1023.24
2018-09-29T04:56:37.394Z,1023.23
2018-09-29T04:57:47.081Z,1023.23
2018-09-29T04:58:56.776Z,1023.26
2018-09-29T05:00:06.729Z,1023.27
2018-09-29T05:01:16.407Z,1023.28
2018-09-29T05:02:26.346Z,1023.27
2018-09-29T05:03:36.299Z,1023.28
2018-09-29T05:04:46.252Z,1023.3
2018-09-29T05:05:56.248Z,1023.35
2018-09-29T05:07:06.183Z,1023.33
2018-09-29T05:08:15.870Z,1023.4
2018-09-29T05:09:25.548Z,1023.36
2018-09-29T05:10:35.500Z,1023.39
2018-09-29T05:11:45.200Z,1023.47
2018-09-29T05:12:55.174Z,1023.39
2018-09-29T05:14:05.138Z,1023.44
2018-09-29T05:15:15.298Z,1023.46
2018-09-29T05:16:25.237Z,1023.43
2018-09-29T05:17:35.202Z,1023.41
2018-09-29T05:18:44.895Z,1023.36
2018-09-29T05:19:54.831Z,1023.4
2018-09-29T05:21:04.770Z,1023.35
2018-09-29T05:22:14.453Z,1023.39
2018-09-29T05:23:24.144Z,1023.38
2018-09-29T05:24:33.841Z,1023.39
2018-09-29T05:25:43.776Z,1023.43
2018-09-29T05:26:53.457Z,1023.34
2018-09-29T05:28:03.424Z,1023.34
2018-09-29T05:29:13.369Z,1023.39
2018-09-29T05:30:23.321Z,1023.35
2018-09-29T05:31:33.258Z,1023.36
2018-09-29T05:32:43.213Z,1023.37
2018-09-29T05:33:52.905Z,1023.38
2018-09-29T05:35:02.604Z,1023.42
2018-09-29T05:36:12.325Z,1023.41
2018-09-29T05:37:21.765Z,1023.44
2018-09-29T05:38:31.721Z,1023.41
2018-09-29T05:39:41.864Z,1023.41
2018-09-29T05:40:51.559Z,1023.55
2018-09-29T05:42:01.505Z,1023.55
2018-09-29T05:43:11.460Z,1023.54
2018-09-29T05:44:21.144Z,1023.58
2018-09-29T05:45:31.099Z,1023.61
2018-09-29T05:46:40.781Z,1023.59
2018-09-29T05:47:50.728Z,1023.65
2018-09-29T05:49:00.658Z,1023.59
2018-09-29T05:50:10.597Z,1023.64
2018-09-29T05:51:20.539Z,1023.58
2018-09-29T05:52:30.480Z,1023.61
2018-09-29T05:53:40.439Z,1023.63
2018-09-29T05:54:50.558Z,1023.66
2018-09-29T05:56:00.517Z,1023.64
2018-09-29T05:57:10.463Z,1023.61
2018-09-29T05:58:20.413Z,1023.63
2018-09-29T05:59:30.113Z,1023.57
2018-09-29T06:00:40.084Z,1023.62
2018-09-29T06:01:50.432Z,1023.59
2018-09-29T06:02:59.877Z,1023.65
2018-09-29T06:04:09.880Z,1023.61
2018-09-29T06:05:19.639Z,1023.61
2018-09-29T06:06:30.240Z,1023.63
2018-09-29T06:07:39.940Z,1023.65
2018-09-29T06:08:49.898Z,1023.67
2018-09-29T06:09:59.874Z,1023.7
2018-09-29T06:11:09.825Z,1023.7
2018-09-29T06:12:19.774Z,1023.74
2018-09-29T06:13:29.714Z,1023.75
2018-09-29T06:14:39.674Z,1023.74
2018-09-29T06:15:49.374Z,1023.77
2018-09-29T06:16:59.090Z,1023.72
2018-09-29T06:18:09.042Z,1023.7
2018-09-29T06:19:18.980Z,1023.74
2018-09-29T06:20:28.658Z,1023.73
2018-09-29T06:21:38.100Z,1023.68
2018-09-29T06:22:48.044Z,1023.71
2018-09-29T06:23:57.979Z,1023.68
2018-09-29T06:25:07.421Z,1023.68
2018-09-29T06:26:17.360Z,1023.77
2018-09-29T06:27:27.308Z,1023.76
2018-09-29T06:28:37.249Z,1023.75
2018-09-29T06:29:47.215Z,1023.83
2018-09-29T06:30:57.163Z,1023.82
2018-09-29T06:32:07.121Z,1023.89
2018-09-29T06:33:16.819Z,1023.89
2018-09-29T06:34:26.495Z,1023.93
2018-09-29T06:35:36.449Z,1023.9
2018-09-29T06:36:46.426Z,1023.89
2018-09-29T06:37:56.513Z,1023.96
2018-09-29T06:39:06.205Z,1024.01
2018-09-29T06:40:16.170Z,1024.08
2018-09-29T06:41:26.139Z,1024.09
2018-09-29T06:42:36.086Z,1024.06
2018-09-29T06:43:45.788Z,1024.14
2018-09-29T06:44:55.744Z,1024.14
2018-09-29T06:46:05.690Z,1024.19
2018-09-29T06:47:15.637Z,1024.15
2018-09-29T06:48:25.331Z,1024.18
2018-09-29T06:49:35.295Z,1024.15
2018-09-29T06:50:45.245Z,1024.19
2018-09-29T06:51:55.190Z,1024.16
2018-09-29T06:53:05.174Z,1024.2
2018-09-29T06:54:15.138Z,1024.22
2018-09-29T06:55:24.985Z,1024.25
2018-09-29T06:56:34.936Z,1024.3
2018-09-29T06:57:44.891Z,1024.29
2018-09-29T06:58:54.833Z,1024.24
2018-09-29T07:00:04.520Z,1024.24
2018-09-29T07:01:14.490Z,1024.24
2018-09-29T07:02:24.457Z,1024.2
2018-09-29T07:03:34.434Z,1024.21
2018-09-29T07:04:44.126Z,1024.2
2018-09-29T07:05:54.091Z,1024.2
2018-09-29T07:07:04.030Z,1024.22
2018-09-29T07:08:13.992Z,1024.2
2018-09-29T07:09:23.675Z,1024.23
2018-09-29T07:10:33.652Z,1024.21
2018-09-29T07:11:43.586Z,1024.18
2018-09-29T07:12:53.306Z,1024.18
2018-09-29T07:14:03.786Z,1024.21
2018-09-29T07:15:13.741Z,1024.21
2018-09-29T07:16:23.704Z,1024.21
2018-09-29T07:17:33.643Z,1024.23
2018-09-29T07:18:43.599Z,1024.2
2018-09-29T07:19:53.299Z,1024.19
2018-09-29T07:21:03.257Z,1024.23
2018-09-29T07:22:12.947Z,1024.28
2018-09-29T07:23:22.964Z,1024.27
2018-09-29T07:24:33.002Z,1024.28
2018-09-29T07:25:42.979Z,1024.22
2018-09-29T07:26:52.684Z,1024.22
2018-09-29T07:28:02.623Z,1024.22
2018-09-29T07:29:12.320Z,1024.2
2018-09-29T07:30:22.276Z,1024.21
2018-09-29T07:31:32.338Z,1024.21
2018-09-29T07:32:42.267Z,1024.21
2018-09-29T07:33:51.992Z,1024.32
2018-09-29T07:35:01.717Z,1024.33
2018-09-29T07:36:11.680Z,1024.34
2018-09-29T07:37:21.640Z,1024.34
2018-09-29T07:38:31.619Z,1024.31
2018-09-29T07:39:41.589Z,1024.34
2018-09-29T07:40:51.552Z,1024.31
2018-09-29T07:42:00.988Z,1024.27
2018-09-29T07:43:10.934Z,1024.24
2018-09-29T07:44:20.900Z,1024.31
2018-09-29T07:45:30.846Z,1024.31
2018-09-29T07:46:40.808Z,1024.3
2018-09-29T07:47:50.498Z,1024.29
2018-09-29T07:49:00.512Z,1024.27
2018-09-29T07:50:10.317Z,1024.23
2018-09-29T07:51:20.274Z,1024.25
2018-09-29T07:52:30.236Z,1024.26
2018-09-29T07:53:39.937Z,1024.26
2018-09-29T07:54:49.978Z,1024.22
2018-09-29T07:56:00.361Z,1024.24
2018-09-29T07:57:10.489Z,1024.26
2018-09-29T07:58:20.181Z,1024.27
2018-09-29T07:59:30.142Z,1024.4
2018-09-29T08:00:40.114Z,1024.36
2018-09-29T08:01:50.069Z,1024.29
2018-09-29T08:02:59.813Z,1024.29
2018-09-29T08:04:09.766Z,1024.27
2018-09-29T08:05:19.511Z,1024.27
2018-09-29T08:06:29.530Z,1024.32
2018-09-29T08:07:39.804Z,1024.28
2018-09-29T08:08:49.747Z,1024.34
2018-09-29T08:09:59.712Z,1024.31
2018-09-29T08:11:09.155Z,1024.26
2018-09-29T08:12:19.208Z,1024.31
2018-09-29T08:13:29.693Z,1024.28
2018-09-29T08:14:39.634Z,1024.31
2018-09-29T08:15:49.612Z,1024.33
2018-09-29T08:16:59.566Z,1024.37
2018-09-29T08:18:09.527Z,1024.39
2018-09-29T08:19:19.469Z,1024.36
2018-09-29T08:20:28.915Z,1024.35
2018-09-29T08:21:38.885Z,1024.39
2018-09-29T08:22:48.852Z,1024.42
2018-09-29T08:23:58.299Z,1024.43
2018-09-29T08:25:08.262Z,1024.46
2018-09-29T08:26:17.716Z,1024.42
2018-09-29T08:27:27.444Z,1024.44
2018-09-29T08:28:37.150Z,1024.42
2018-09-29T08:29:47.106Z,1024.35
2018-09-29T08:30:56.801Z,1024.32
2018-09-29T08:32:06.276Z,1024.34
2018-09-29T08:33:16.509Z,1024.42
2018-09-29T08:34:26.485Z,1024.39
2018-09-29T08:35:36.454Z,1024.4
2018-09-29T08:36:46.418Z,1024.37
2018-09-29T08:37:56.470Z,1024.36
2018-09-29T08:39:06.503Z,1024.37
2018-09-29T08:40:16.455Z,1024.36
2018-09-29T08:41:26.169Z,1024.39
2018-09-29T08:42:36.132Z,1024.33
2018-09-29T08:43:46.090Z,1024.37
2018-09-29T08:44:56.061Z,1024.41
2018-09-29T08:46:06.009Z,1024.43
2018-09-29T08:47:15.961Z,1024.44
2018-09-29T08:48:25.918Z,1024.49
2018-09-29T08:49:35.630Z,1024.51
2018-09-29T08:50:45.599Z,1024.5
2018-09-29T08:51:55.561Z,1024.45
2018-09-29T08:53:05.564Z,1024.49
2018-09-29T08:54:15.511Z,1024.48
2018-09-29T08:55:25.480Z,1024.46
2018-09-29T08:56:35.190Z,1024.47
2018-09-29T08:57:44.642Z,1024.47
2018-09-29T08:58:54.654Z,1024.42
2018-09-29T09:00:04.613Z,1024.46
2018-09-29T09:01:14.579Z,1024.52
2018-09-29T09:02:24.537Z,1024.51
2018-09-29T09:03:34.234Z,1024.49
2018-09-29T09:04:44.200Z,1024.43
2018-09-29T09:05:54.175Z,1024.45
2018-09-29T09:07:04.142Z,1024.4
2018-09-29T09:08:14.102Z,1024.44
2018-09-29T09:09:23.854Z,1024.43
2018-09-29T09:10:34.011Z,1024.44
2018-09-29T09:11:44.005Z,1024.47
2018-09-29T09:12:53.950Z,1024.48
2018-09-29T09:14:03.932Z,1024.44
2018-09-29T09:15:13.385Z,1024.5
2018-09-29T09:16:23.354Z,1024.51
2018-09-29T09:17:33.313Z,1024.52
2018-09-29T09:18:43.269Z,1024.57
2018-09-29T09:19:52.989Z,1024.54
2018-09-29T09:21:02.693Z,1024.57
2018-09-29T09:22:12.384Z,1024.56
2018-09-29T09:23:22.346Z,1024.54
2018-09-29T09:24:32.200Z,1024.51
2018-09-29T09:25:41.907Z,1024.53
2018-09-29T09:26:51.339Z,1024.52
2018-09-29T09:28:01.297Z,1024.48
2018-09-29T09:29:11.019Z,1024.48
2018-09-29T09:30:21.080Z,1024.45
2018-09-29T09:31:31.246Z,1024.49
2018-09-29T09:32:41.224Z,1024.46
2018-09-29T09:33:51.189Z,1024.39
2018-09-29T09:35:01.158Z,1024.42
2018-09-29T09:36:11.113Z,1024.45
2018-09-29T09:37:20.805Z,1024.42
2018-09-29T09:38:30.250Z,1024.43
2018-09-29T09:39:40.207Z,1024.45
2018-09-29T09:40:50.160Z,1024.5
2018-09-29T09:41:59.845Z,1024.46
2018-09-29T09:43:09.805Z,1024.5
2018-09-29T09:44:19.804Z,1024.48
2018-09-29T09:45:29.497Z,1024.47
2018-09-29T09:46:39.465Z,1024.47
2018-09-29T09:47:49.172Z,1024.42
2018-09-29T09:48:58.889Z,1024.45
2018-09-29T09:50:08.856Z,1024.43
2018-09-29T09:51:18.814Z,1024.48
2018-09-29T09:52:28.769Z,1024.43
2018-09-29T09:53:38.729Z,1024.42
2018-09-29T09:54:48.425Z,1024.49
2018-09-29T09:55:58.422Z,1024.5
2018-09-29T09:57:08.847Z,1024.5
2018-09-29T09:58:18.314Z,1024.54
2018-09-29T09:59:28.048Z,1024.49
2018-09-29T10:00:38.002Z,1024.46
2018-09-29T10:01:47.724Z,1024.5
2018-09-29T10:02:57.686Z,1024.39
2018-09-29T10:04:07.453Z,1024.39
2018-09-29T10:05:17.504Z,1024.47
2018-09-29T10:06:27.249Z,1024.37
2018-09-29T10:07:37.173Z,1024.4
2018-09-29T10:08:46.637Z,1024.44
2018-09-29T10:09:56.607Z,1024.38
2018-09-29T10:11:06.050Z,1024.41
2018-09-29T10:12:16.052Z,1024.47
2018-09-29T10:13:25.996Z,1024.45
2018-09-29T10:14:35.993Z,1024.39
2018-09-29T10:15:45.945Z,1024.36
2018-09-29T10:16:55.910Z,1024.46
2018-09-29T10:18:05.874Z,1024.37
2018-09-29T10:19:15.838Z,1024.33
2018-09-29T10:20:25.795Z,1024.35
2018-09-29T10:21:35.752Z,1024.39
2018-09-29T10:22:45.454Z,1024.35
2018-09-29T10:23:55.437Z,1024.35
2018-09-29T10:25:04.883Z,1024.36
2018-09-29T10:26:14.588Z,1024.31
2018-09-29T10:27:24.565Z,1024.3
2018-09-29T10:28:34.367Z,1024.33
2018-09-29T10:29:44.363Z,1024.37
2018-09-29T10:30:54.351Z,1024.37
2018-09-29T10:32:04.348Z,1024.37
2018-09-29T10:33:14.050Z,1024.32
2018-09-29T10:34:24.006Z,1024.33
2018-09-29T10:35:33.719Z,1024.39
2018-09-29T10:36:43.677Z,1024.37
2018-09-29T10:37:53.657Z,1024.38
2018-09-29T10:39:03.354Z,1024.4
2018-09-29T10:40:13.055Z,1024.33
2018-09-29T10:41:22.802Z,1024.32
2018-09-29T10:42:32.508Z,1024.31
2018-09-29T10:43:42.503Z,1024.37
2018-09-29T10:44:52.467Z,1024.33
2018-09-29T10:46:02.553Z,1024.35
2018-09-29T10:47:12.261Z,1024.37
2018-09-29T10:48:22.224Z,1024.31
2018-09-29T10:49:31.932Z,1024.27
2018-09-29T10:50:41.636Z,1024.25
2018-09-29T10:51:51.616Z,1024.25
2018-09-29T10:53:01.622Z,1024.2
2018-09-29T10:54:11.548Z,1024.24
2018-09-29T10:55:21.536Z,1024.26
2018-09-29T10:56:31.514Z,1024.22
2018-09-29T10:57:41.222Z,1024.26
2018-09-29T10:58:51.186Z,1024.23
2018-09-29T11:00:01.026Z,1024.21
2018-09-29T11:01:10.993Z,1024.21
2018-09-29T11:02:20.701Z,1024.15
2018-09-29T11:03:30.773Z,1024.12
2018-09-29T11:04:40.751Z,1024.1
2018-09-29T11:05:50.772Z,1024.06
2018-09-29T11:07:00.540Z,1023.97
2018-09-29T11:08:10.237Z,1024.05
2018-09-29T11:09:19.952Z,1023.99
2018-09-29T11:10:29.943Z,1023.98
2018-09-29T11:11:39.901Z,1024
2018-09-29T11:12:49.619Z,1023.87
2018-09-29T11:13:59.597Z,1023.88
2018-09-29T11:15:09.574Z,1023.92
2018-09-29T11:16:19.301Z,1023.89
2018-09-29T11:17:29.279Z,1024.01
2018-09-29T11:18:39.259Z,1023.87
2018-09-29T11:19:48.704Z,1023.88
2018-09-29T11:20:58.711Z,1023.87
2018-09-29T11:22:08.625Z,1023.86
2018-09-29T11:23:18.583Z,1023.74
2018-09-29T11:24:28.568Z,1023.77
2018-09-29T11:25:38.010Z,1023.75
2018-09-29T11:26:47.980Z,1023.72
2018-09-29T11:27:57.684Z,1023.71
2018-09-29T11:29:07.846Z,1023.73
2018-09-29T11:30:17.564Z,1023.65
2018-09-29T11:31:27.545Z,1023.6
2018-09-29T11:32:37.502Z,1023.66
2018-09-29T11:33:47.469Z,1023.58
2018-09-29T11:34:57.443Z,1023.63
2018-09-29T11:36:06.881Z,1023.66
2018-09-29T11:37:16.857Z,1023.65
2018-09-29T11:38:26.806Z,1023.57
2018-09-29T11:39:36.266Z,1023.51
2018-09-29T11:40:46.210Z,1023.45
2018-09-29T11:41:56.175Z,1023.42
2018-09-29T11:43:06.119Z,1023.37
2018-09-29T11:44:16.090Z,1023.43
2018-09-29T11:45:26.084Z,1023.39
2018-09-29T11:46:35.777Z,1023.36
2018-09-29T11:47:45.749Z,1023.38
2018-09-29T11:48:55.728Z,1023.37
2018-09-29T11:50:05.162Z,1023.34
2018-09-29T11:51:14.866Z,1023.38
2018-09-29T11:52:24.831Z,1023.25
2018-09-29T11:53:34.811Z,1023.38
2018-09-29T11:54:44.528Z,1023.36
2018-09-29T11:55:54.521Z,1023.4
2018-09-29T11:57:04.010Z,1023.39
2018-09-29T11:58:13.971Z,1023.43
2018-09-29T11:59:23.941Z,1023.32
2018-09-29T12:00:33.646Z,1023.35
2018-09-29T12:01:43.651Z,1023.34
2018-09-29T12:02:54.117Z,1023.33
2018-09-29T12:04:04.108Z,1023.33
2018-09-29T12:05:14.067Z,1023.31
2018-09-29T12:06:24.054Z,1023.27
2018-09-29T12:07:34.304Z,1023.26
2018-09-29T12:08:44.965Z,1023.22
2018-09-29T12:09:54.918Z,1023.21
2018-09-29T12:11:04.885Z,1023.25
2018-09-29T12:12:14.872Z,1023.19
2018-09-29T12:13:24.302Z,1023.22
2018-09-29T12:14:34.270Z,1023.21
2018-09-29T12:15:44.229Z,1023.19
2018-09-29T12:16:54.201Z,1023.14
2018-09-29T12:18:04.188Z,1023.14
2018-09-29T12:19:14.147Z,1023.13
2018-09-29T12:20:24.112Z,1023.1
2018-09-29T12:21:34.083Z,1023.1
2018-09-29T12:22:44.090Z,1023.13
2018-09-29T12:23:53.776Z,1023.06
2018-09-29T12:25:03.497Z,1023.07
2018-09-29T12:26:13.183Z,1023.08
2018-09-29T12:27:24.920Z,1023.01
2018-09-29T12:28:35.042Z,1022.95
2018-09-29T12:29:44.515Z,1022.91
2018-09-29T12:30:54.838Z,1023.02
2018-09-29T12:32:04.803Z,1022.94
2018-09-29T12:33:14.755Z,1022.91
2018-09-29T12:34:24.717Z,1022.93
2018-09-29T12:35:34.682Z,1022.86
2018-09-29T12:36:44.650Z,1022.87
2018-09-29T12:37:55.254Z,1022.93
2018-09-29T12:39:05.232Z,1022.84
2018-09-29T12:40:14.932Z,1022.82
2018-09-29T12:41:24.380Z,1022.9
2018-09-29T12:42:34.123Z,1022.84
2018-09-29T12:43:44.219Z,1022.82
2018-09-29T12:44:54.269Z,1022.81
2018-09-29T12:46:04.657Z,1022.77
2018-09-29T12:47:14.347Z,1022.79
2018-09-29T12:48:24.390Z,1022.74
2018-09-29T12:49:34.083Z,1022.76
2018-09-29T12:50:43.522Z,1022.74
2018-09-29T12:51:53.011Z,1022.68
2018-09-29T12:53:03.057Z,1022.67
2018-09-29T12:54:12.506Z,1022.62
2018-09-29T12:55:22.205Z,1022.6
2018-09-29T12:56:31.902Z,1022.57
2018-09-29T12:57:41.865Z,1022.58
2018-09-29T12:58:51.349Z,1022.59
2018-09-29T13:00:01.823Z,1022.56
2018-09-29T13:01:11.841Z,1022.56
2018-09-29T13:02:21.524Z,1022.55
2018-09-29T13:03:31.225Z,1022.55
2018-09-29T13:04:40.936Z,1022.49
2018-09-29T13:05:50.909Z,1022.45
2018-09-29T13:07:00.359Z,1022.42
2018-09-29T13:08:10.336Z,1022.41
2018-09-29T13:09:20.026Z,1022.46
2018-09-29T13:10:29.487Z,1022.41
2018-09-29T13:11:39.455Z,1022.38
2018-09-29T13:12:49.153Z,1022.39
2018-09-29T13:13:59.115Z,1022.43
2018-09-29T13:15:09.270Z,1022.41
2018-09-29T13:16:19.251Z,1022.4
2018-09-29T13:17:29.215Z,1022.39
2018-09-29T13:18:39.182Z,1022.38
2018-09-29T13:19:49.138Z,1022.41
2018-09-29T13:20:59.093Z,1022.46
2018-09-29T13:22:09.058Z,1022.48
2018-09-29T13:23:19.016Z,1022.4
2018-09-29T13:24:28.980Z,1022.5
2018-09-29T13:25:38.698Z,1022.4
2018-09-29T13:26:48.675Z,1022.45
2018-09-29T13:27:58.687Z,1022.43
2018-09-29T13:29:08.645Z,1022.37
2018-09-29T13:30:18.350Z,1022.35
2018-09-29T13:31:28.320Z,1022.37
2018-09-29T13:32:38.027Z,1022.33
2018-09-29T13:33:48.011Z,1022.28
2018-09-29T13:34:57.968Z,1022.4
2018-09-29T13:36:07.930Z,1022.35
2018-09-29T13:37:17.900Z,1022.36
2018-09-29T13:38:27.605Z,1022.37
2018-09-29T13:39:37.288Z,1022.31
2018-09-29T13:40:46.986Z,1022.3
2018-09-29T13:41:56.951Z,1022.3
2018-09-29T13:43:06.393Z,1022.21
2018-09-29T13:44:16.373Z,1022.19
2018-09-29T13:45:26.328Z,1022.16
2018-09-29T13:46:36.283Z,1022.13
2018-09-29T13:47:46.293Z,1022.11
2018-09-29T13:48:56.262Z,1022.04
2018-09-29T13:50:05.989Z,1022.05
2018-09-29T13:51:15.692Z,1021.98
2018-09-29T13:52:25.647Z,1021.97
2018-09-29T13:53:35.437Z,1021.99
2018-09-29T13:54:45.446Z,1021.96
2018-09-29T13:55:55.401Z,1022.03
2018-09-29T13:57:05.370Z,1022.02
2018-09-29T13:58:15.332Z,1022.05
2018-09-29T13:59:25.327Z,1021.99
2018-09-29T14:00:35.038Z,1021.94
2018-09-29T14:01:45.016Z,1021.9
2018-09-29T14:02:54.978Z,1021.86
2018-09-29T14:04:04.687Z,1021.84
2018-09-29T14:05:14.657Z,1021.84
2018-09-29T14:06:24.603Z,1021.75
2018-09-29T14:07:34.300Z,1021.78
2018-09-29T14:08:44.086Z,1021.76